createdAt,value
2018-07-23T00:00:17.170Z,0.00
2018-07-23T00:01:17.413Z,0.00
2018-07-23T00:02:17.656Z,0.00
2018-07-23T00:03:17.899Z,0.00
2018-07-23T00:04:18.142Z,0.00
2018-07-23T00:05:18.384Z,0.00
2018-07-23T00:06:18.626Z,0.00
2018-07-23T00:07:18.872Z,0.00
2018-07-23T00:08:19.112Z,0.00
2018-07-23T00:09:19.355Z,0.00
2018-07-23T00:10:19.599Z,0.00
2018-07-23T00:11:19.841Z,0.00
2018-07-23T00:12:20.084Z,0.00
2018-07-23T00:13:20.326Z,0.00
2018-07-23T00:14:20.570Z,0.00
2018-07-23T00:15:20.815Z,0.00
2018-07-23T00:16:21.059Z,0.00
2018-07-23T00:17:21.303Z,0.00
2018-07-23T00:18:21.546Z,0.00
2018-07-23T00:19:21.788Z,0.00
2018-07-23T00:20:22.032Z,0.00
2018-07-23T00:21:22.276Z,0.00
2018-07-23T00:22:22.521Z,0.00
2018-07-23T00:23:22.765Z,0.00
2018-07-23T00:24:23.008Z,0.00
2018-07-23T00:25:23.252Z,0.00
2018-07-23T00:26:23.494Z,0.00
2018-07-23T00:27:23.737Z,0.00
2018-07-23T00:28:23.978Z,0.00
2018-07-23T00:29:24.222Z,0.00
2018-07-23T00:30:24.464Z,0.00
2018-07-23T00:31:24.705Z,0.00
2018-07-23T00:32:24.949Z,0.00
2018-07-23T00:33:25.192Z,0.00
2018-07-23T00:34:25.435Z,0.00
2018-07-23T00:35:25.678Z,0.00
2018-07-23T00:36:25.923Z,0.00
2018-07-23T00:37:26.166Z,0.00
2018-07-23T00:38:26.409Z,0.00
2018-07-23T00:39:26.653Z,0.00
2018-07-23T00:40:26.897Z,0.00
2018-07-23T00:41:27.140Z,0.00
2018-07-23T00:42:27.383Z,0.00
2018-07-23T00:43:27.626Z,0.00
2018-07-23T00:44:27.868Z,0.00
2018-07-23T00:45:28.112Z,0.00
2018-07-23T00:46:28.356Z,0.00
2018-07-23T00:47:28.597Z,0.00
2018-07-23T00:48:28.838Z,0.00
2018-07-23T00:49:29.079Z,0.00
2018-07-23T00:50:29.322Z,0.00
2018-07-23T00:51:29.568Z,0.00
2018-07-23T00:52:29.812Z,0.00
2018-07-23T00:53:30.049Z,0.00
2018-07-23T00:54:30.291Z,0.00
2018-07-23T00:55:30.530Z,0.00
2018-07-23T00:56:30.779Z,0.00
2018-07-23T00:57:31.016Z,0.00
2018-07-23T00:58:31.258Z,0.00
2018-07-23T00:59:31.501Z,0.00
2018-07-23T01:00:31.744Z,0.00
2018-07-23T01:01:31.986Z,0.00
2018-07-23T01:02:32.228Z,0.00
2018-07-23T01:03:32.471Z,0.00
2018-07-23T01:04:32.713Z,0.00
2018-07-23T01:05:32.954Z,0.00
2018-07-23T01:06:33.197Z,0.00
2018-07-23T01:07:33.438Z,0.00
2018-07-23T01:08:33.682Z,0.00
2018-07-23T01:09:33.922Z,0.00
2018-07-23T01:10:34.166Z,0.00
2018-07-23T01:11:34.408Z,0.00
2018-07-23T01:12:34.648Z,0.00
2018-07-23T01:13:34.892Z,0.00
2018-07-23T01:14:35.133Z,0.00
2018-07-23T01:15:35.375Z,0.00
2018-07-23T01:16:35.616Z,0.00
2018-07-23T01:17:35.858Z,0.00
2018-07-23T01:18:36.101Z,0.00
2018-07-23T01:19:36.344Z,0.00
2018-07-23T01:20:36.572Z,0.00
2018-07-23T01:21:36.833Z,0.00
2018-07-23T01:22:37.076Z,0.00
2018-07-23T01:23:37.318Z,0.00
2018-07-23T01:24:37.559Z,0.00
2018-07-23T01:25:37.799Z,0.00
2018-07-23T01:26:38.043Z,0.00
2018-07-23T01:27:38.282Z,0.00
2018-07-23T01:28:38.528Z,0.00
2018-07-23T01:29:38.767Z,0.00
2018-07-23T01:30:39.008Z,0.00
2018-07-23T01:31:39.252Z,0.00
2018-07-23T01:32:39.494Z,0.00
2018-07-23T01:33:39.736Z,0.00
2018-07-23T01:34:39.978Z,0.00
2018-07-23T01:35:40.218Z,0.00
2018-07-23T01:36:40.460Z,0.00
2018-07-23T01:37:40.703Z,0.00
2018-07-23T01:38:40.943Z,0.00
2018-07-23T01:39:41.185Z,0.00
2018-07-23T01:40:41.425Z,0.00
2018-07-23T01:41:41.667Z,0.00
2018-07-23T01:42:41.911Z,0.00
2018-07-23T01:43:42.154Z,0.00
2018-07-23T01:44:42.394Z,0.00
2018-07-23T01:45:42.636Z,0.00
2018-07-23T01:46:42.879Z,0.00
2018-07-23T01:47:43.122Z,0.00
2018-07-23T01:48:43.364Z,0.00
2018-07-23T01:49:43.608Z,0.00
2018-07-23T01:50:43.849Z,0.00
2018-07-23T01:51:44.091Z,0.00
2018-07-23T01:52:44.336Z,0.00
2018-07-23T01:53:44.576Z,0.00
2018-07-23T01:54:44.817Z,0.00
2018-07-23T01:55:45.060Z,0.00
2018-07-23T01:56:45.301Z,0.00
2018-07-23T01:57:45.543Z,0.00
2018-07-23T01:58:45.785Z,0.00
2018-07-23T01:59:46.026Z,0.00
2018-07-23T02:00:46.267Z,0.00
2018-07-23T02:01:46.511Z,0.00
2018-07-23T02:02:46.752Z,0.00
2018-07-23T02:03:46.993Z,0.00
2018-07-23T02:04:47.234Z,0.00
2018-07-23T02:05:47.477Z,0.00
2018-07-23T02:06:47.725Z,0.00
2018-07-23T02:07:47.964Z,0.00
2018-07-23T02:08:48.202Z,0.00
2018-07-23T02:09:48.444Z,0.00
2018-07-23T02:10:48.686Z,0.00
2018-07-23T02:11:48.932Z,0.00
2018-07-23T02:12:49.168Z,0.00
2018-07-23T02:13:49.410Z,0.00
2018-07-23T02:14:49.652Z,0.00
2018-07-23T02:15:49.895Z,0.00
2018-07-23T02:16:50.137Z,0.00
2018-07-23T02:17:50.399Z,0.00
2018-07-23T02:18:50.623Z,0.00
2018-07-23T02:19:50.863Z,0.00
2018-07-23T02:20:51.103Z,0.00
2018-07-23T02:21:51.345Z,0.00
2018-07-23T02:22:51.586Z,0.00
2018-07-23T02:23:51.825Z,0.00
2018-07-23T02:24:52.066Z,0.00
2018-07-23T02:25:52.307Z,0.00
2018-07-23T02:26:52.550Z,0.00
2018-07-23T02:27:52.798Z,0.00
2018-07-23T02:28:53.033Z,0.00
2018-07-23T02:29:53.274Z,0.00
2018-07-23T02:30:53.516Z,0.00
2018-07-23T02:31:53.759Z,0.00
2018-07-23T02:32:53.998Z,0.00
2018-07-23T02:33:54.239Z,0.00
2018-07-23T02:34:54.480Z,0.00
2018-07-23T02:35:54.722Z,0.00
2018-07-23T02:36:54.962Z,0.00
2018-07-23T02:37:55.205Z,0.00
2018-07-23T02:38:55.475Z,0.00
2018-07-23T02:39:55.689Z,0.00
2018-07-23T02:40:55.926Z,0.00
2018-07-23T02:41:56.167Z,0.00
2018-07-23T02:42:56.408Z,0.00
2018-07-23T02:43:56.649Z,0.00
2018-07-23T02:44:56.891Z,0.00
2018-07-23T02:45:57.133Z,0.00
2018-07-23T02:46:57.372Z,0.00
2018-07-23T02:47:57.616Z,0.00
2018-07-23T02:48:57.856Z,0.00
2018-07-23T02:49:58.098Z,0.00
2018-07-23T02:50:58.337Z,0.00
2018-07-23T02:51:58.580Z,0.00
2018-07-23T02:52:58.822Z,0.00
2018-07-23T02:53:59.063Z,0.00
2018-07-23T02:54:59.305Z,0.00
2018-07-23T02:55:59.546Z,4.00
2018-07-23T02:56:59.788Z,4.00
2018-07-23T02:58:00.032Z,0.00
2018-07-23T02:59:00.272Z,4.00
2018-07-23T03:00:00.519Z,4.00
2018-07-23T03:01:00.758Z,4.00
2018-07-23T03:02:01.000Z,4.00
2018-07-23T03:03:01.243Z,4.00
2018-07-23T03:04:01.484Z,4.00
2018-07-23T03:05:01.724Z,8.00
2018-07-23T03:06:01.966Z,8.00
2018-07-23T03:07:02.207Z,8.00
2018-07-23T03:08:02.448Z,12.00
2018-07-23T03:09:02.692Z,12.00
2018-07-23T03:10:02.939Z,16.00
2018-07-23T03:11:03.174Z,12.00
2018-07-23T03:12:03.416Z,16.00
2018-07-23T03:13:03.659Z,20.00
2018-07-23T03:14:03.901Z,24.00
2018-07-23T03:15:04.142Z,24.00
2018-07-23T03:16:04.383Z,32.00
2018-07-23T03:17:04.623Z,36.00
2018-07-23T03:18:04.866Z,36.00
2018-07-23T03:19:05.109Z,44.00
2018-07-23T03:20:05.349Z,52.00
2018-07-23T03:21:05.592Z,56.00
2018-07-23T03:22:05.835Z,64.00
2018-07-23T03:23:06.081Z,72.00
2018-07-23T03:24:06.320Z,80.00
2018-07-23T03:25:06.565Z,84.00
2018-07-23T03:26:06.808Z,96.00
2018-07-23T03:27:07.046Z,104.00
2018-07-23T03:28:07.287Z,116.00
2018-07-23T03:29:07.531Z,124.00
2018-07-23T03:30:07.772Z,132.00
2018-07-23T03:31:08.014Z,144.00
2018-07-23T03:32:08.257Z,160.00
2018-07-23T03:33:08.498Z,168.00
2018-07-23T03:34:08.742Z,184.00
2018-07-23T03:35:08.984Z,200.00
2018-07-23T03:36:09.226Z,216.00
2018-07-23T03:37:09.468Z,232.00
2018-07-23T03:38:09.708Z,248.00
2018-07-23T03:39:09.959Z,268.00
2018-07-23T03:40:10.193Z,288.00
2018-07-23T03:41:10.435Z,312.00
2018-07-23T03:42:10.681Z,332.00
2018-07-23T03:43:10.920Z,356.00
2018-07-23T03:44:11.162Z,380.00
2018-07-23T03:45:11.404Z,408.00
2018-07-23T03:46:11.646Z,432.00
2018-07-23T03:47:11.888Z,456.00
2018-07-23T03:48:12.130Z,484.00
2018-07-23T03:49:12.372Z,512.00
2018-07-23T03:50:12.615Z,544.00
2018-07-23T03:51:12.857Z,584.00
2018-07-23T03:52:13.105Z,620.00
2018-07-23T03:53:13.340Z,660.00
2018-07-23T03:54:13.583Z,704.00
2018-07-23T03:55:13.824Z,748.00
2018-07-23T03:56:14.068Z,792.00
2018-07-23T03:57:14.306Z,836.00
2018-07-23T03:58:14.550Z,880.00
2018-07-23T03:59:14.791Z,932.00
2018-07-23T04:00:15.033Z,976.00
2018-07-23T04:01:15.274Z,1020.00
2018-07-23T04:02:15.515Z,1068.00
2018-07-23T04:03:15.757Z,1112.00
2018-07-23T04:04:15.997Z,1156.00
2018-07-23T04:05:16.245Z,1208.00
2018-07-23T04:06:16.481Z,1260.00
2018-07-23T04:07:16.722Z,1320.00
2018-07-23T04:08:16.965Z,1384.00
2018-07-23T04:09:17.205Z,1448.00
2018-07-23T04:10:17.448Z,1516.00
2018-07-23T04:11:17.691Z,1588.00
2018-07-23T04:12:17.932Z,1656.00
2018-07-23T04:13:18.175Z,1728.00
2018-07-23T04:14:18.414Z,1800.00
2018-07-23T04:15:18.657Z,1868.00
2018-07-23T04:16:18.902Z,1936.00
2018-07-23T04:17:19.141Z,2008.00
2018-07-23T04:18:19.383Z,2080.00
2018-07-23T04:19:19.623Z,2156.00
2018-07-23T04:20:19.865Z,2228.00
2018-07-23T04:21:20.107Z,2300.00
2018-07-23T04:22:20.348Z,2360.00
2018-07-23T04:23:20.590Z,2424.00
2018-07-23T04:24:20.832Z,2488.00
2018-07-23T04:25:21.078Z,2552.00
2018-07-23T04:26:21.321Z,2616.00
2018-07-23T04:27:21.562Z,2684.00
2018-07-23T04:28:21.804Z,2752.00
2018-07-23T04:29:22.047Z,2820.00
2018-07-23T04:30:22.288Z,2888.00
2018-07-23T04:31:22.528Z,2944.00
2018-07-23T04:32:22.774Z,3004.00
2018-07-23T04:33:23.013Z,3064.00
2018-07-23T04:34:23.257Z,3124.00
2018-07-23T04:35:23.495Z,3196.00
2018-07-23T04:36:23.739Z,3280.00
2018-07-23T04:37:23.981Z,3348.00
2018-07-23T04:38:24.223Z,3408.00
2018-07-23T04:39:24.467Z,3476.00
2018-07-23T04:40:24.710Z,3536.00
2018-07-23T04:41:24.951Z,3596.00
2018-07-23T04:42:25.226Z,3668.00
2018-07-23T04:43:25.436Z,3748.00
2018-07-23T04:44:25.678Z,3832.00
2018-07-23T04:45:25.921Z,3912.00
2018-07-23T04:46:26.165Z,3988.00
2018-07-23T04:47:26.405Z,4064.00
2018-07-23T04:48:26.649Z,4140.00
2018-07-23T04:49:26.898Z,4224.00
2018-07-23T04:50:27.132Z,4312.00
2018-07-23T04:51:27.374Z,4400.00
2018-07-23T04:52:27.617Z,4488.00
2018-07-23T04:53:27.860Z,4576.00
2018-07-23T04:54:28.104Z,4656.00
2018-07-23T04:55:28.345Z,4736.00
2018-07-23T04:56:28.588Z,4820.00
2018-07-23T04:57:28.833Z,4904.00
2018-07-23T04:58:29.077Z,4988.00
2018-07-23T04:59:29.320Z,5072.00
2018-07-23T05:00:29.563Z,5164.00
2018-07-23T05:01:29.805Z,5260.00
2018-07-23T05:02:30.047Z,5356.00
2018-07-23T05:03:30.291Z,5448.00
2018-07-23T05:04:30.531Z,5552.00
2018-07-23T05:05:30.772Z,5644.00
2018-07-23T05:06:31.017Z,5736.00
2018-07-23T05:07:31.264Z,5804.00
2018-07-23T05:08:31.521Z,5868.00
2018-07-23T05:09:31.743Z,5920.00
2018-07-23T05:10:31.985Z,5968.00
2018-07-23T05:11:32.228Z,6012.00
2018-07-23T05:12:32.472Z,6064.00
2018-07-23T05:13:32.714Z,6144.00
2018-07-23T05:14:32.957Z,6220.00
2018-07-23T05:15:33.200Z,6300.00
2018-07-23T05:16:33.441Z,6376.00
2018-07-23T05:17:33.684Z,6456.00
2018-07-23T05:18:33.928Z,6540.00
2018-07-23T05:19:34.171Z,6628.00
2018-07-23T05:20:34.414Z,6716.00
2018-07-23T05:21:34.660Z,6780.00
2018-07-23T05:22:34.900Z,6832.00
2018-07-23T05:23:35.142Z,6868.00
2018-07-23T05:24:35.468Z,6908.00
2018-07-23T05:25:35.635Z,6956.00
2018-07-23T05:26:35.871Z,7016.00
2018-07-23T05:27:36.116Z,7080.00
2018-07-23T05:28:36.360Z,7160.00
2018-07-23T05:29:36.605Z,7252.00
2018-07-23T05:30:36.847Z,7348.00
2018-07-23T05:31:37.113Z,7432.00
2018-07-23T05:32:37.337Z,7492.00
2018-07-23T05:33:37.580Z,7556.00
2018-07-23T05:34:37.825Z,7604.00
2018-07-23T05:35:38.068Z,7664.00
2018-07-23T05:36:38.313Z,7724.00
2018-07-23T05:37:38.557Z,7772.00
2018-07-23T05:38:38.882Z,7820.00
2018-07-23T05:39:39.045Z,7880.00
2018-07-23T05:40:39.289Z,7952.00
2018-07-23T05:41:39.535Z,8024.00
2018-07-23T05:42:39.776Z,8088.00
2018-07-23T05:43:40.021Z,8160.00
2018-07-23T05:44:40.266Z,8232.00
2018-07-23T05:45:40.509Z,8288.00
2018-07-23T05:46:40.753Z,8340.00
2018-07-23T05:47:40.997Z,8380.00
2018-07-23T05:48:41.241Z,8416.00
2018-07-23T05:49:41.486Z,8456.00
2018-07-23T05:50:41.731Z,8508.00
2018-07-23T05:51:41.973Z,8572.00
2018-07-23T05:52:42.220Z,8628.00
2018-07-23T05:53:42.466Z,8628.00
2018-07-23T05:54:42.710Z,8756.00
2018-07-23T05:55:42.956Z,8812.00
2018-07-23T05:56:43.200Z,8880.00
2018-07-23T05:57:43.496Z,8940.00
2018-07-23T05:58:43.694Z,9008.00
2018-07-23T05:59:43.936Z,9068.00
2018-07-23T06:00:44.182Z,9124.00
2018-07-23T06:01:44.414Z,9184.00
2018-07-23T06:02:44.657Z,9252.00
2018-07-23T06:03:44.938Z,9320.00
2018-07-23T06:04:45.143Z,9392.00
2018-07-23T06:05:45.386Z,9456.00
2018-07-23T06:06:45.672Z,9520.00
2018-07-23T06:07:45.876Z,9588.00
2018-07-23T06:08:46.125Z,9660.00
2018-07-23T06:09:46.366Z,9736.00
2018-07-23T06:10:46.615Z,9800.00
2018-07-23T06:11:46.862Z,9852.00
2018-07-23T06:12:47.103Z,9896.00
2018-07-23T06:13:47.348Z,9964.00
2018-07-23T06:14:47.594Z,10032.00
2018-07-23T06:15:47.836Z,10096.00
2018-07-23T06:16:48.082Z,10156.00
2018-07-23T06:17:48.328Z,10212.00
2018-07-23T06:18:48.574Z,10276.00
2018-07-23T06:19:48.832Z,10336.00
2018-07-23T06:20:49.068Z,10392.00
2018-07-23T06:21:49.311Z,10440.00
2018-07-23T06:22:49.558Z,10504.00
2018-07-23T06:23:49.802Z,10580.00
2018-07-23T06:24:50.049Z,10656.00
2018-07-23T06:25:50.319Z,10732.00
2018-07-23T06:26:50.541Z,10812.00
2018-07-23T06:27:50.788Z,10884.00
2018-07-23T06:28:51.031Z,10948.00
2018-07-23T06:29:51.280Z,11016.00
2018-07-23T06:30:51.524Z,11084.00
2018-07-23T06:31:51.773Z,11156.00
2018-07-23T06:32:52.015Z,11228.00
2018-07-23T06:33:52.292Z,11320.00
2018-07-23T06:34:52.505Z,11420.00
2018-07-23T06:35:52.754Z,11524.00
2018-07-23T06:36:52.998Z,11636.00
2018-07-23T06:37:53.247Z,11756.00
2018-07-23T06:38:53.490Z,11852.00
2018-07-23T06:39:53.736Z,11948.00
2018-07-23T06:40:54.012Z,12036.00
2018-07-23T06:41:54.274Z,12112.00
2018-07-23T06:42:54.531Z,12172.00
2018-07-23T06:43:54.777Z,12268.00
2018-07-23T06:44:55.023Z,12356.00
2018-07-23T06:45:55.264Z,12444.00
2018-07-23T06:46:55.511Z,12540.00
2018-07-23T06:47:55.759Z,12612.00
2018-07-23T06:48:56.007Z,12680.00
2018-07-23T06:49:56.250Z,12760.00
2018-07-23T06:50:56.491Z,12828.00
2018-07-23T06:51:56.737Z,12904.00
2018-07-23T06:52:56.984Z,12960.00
2018-07-23T06:53:57.256Z,13040.00
2018-07-23T06:54:57.477Z,12816.00
2018-07-23T06:55:57.727Z,12892.00
2018-07-23T06:56:57.964Z,12976.00
2018-07-23T06:57:58.211Z,13056.00
2018-07-23T06:58:58.463Z,13136.00
2018-07-23T06:59:58.711Z,13208.00
2018-07-23T07:00:58.959Z,13288.00
2018-07-23T07:01:59.205Z,13364.00
2018-07-23T07:02:59.452Z,13436.00
2018-07-23T07:03:59.698Z,13512.00
2018-07-23T07:04:59.947Z,13592.00
2018-07-23T07:06:00.192Z,13668.00
2018-07-23T07:07:00.438Z,13764.00
2018-07-23T07:08:00.686Z,13852.00
2018-07-23T07:09:00.933Z,13932.00
2018-07-23T07:10:01.179Z,14008.00
2018-07-23T07:11:01.521Z,14068.00
2018-07-23T07:12:01.677Z,14124.00
2018-07-23T07:13:01.925Z,14180.00
2018-07-23T07:14:02.173Z,14260.00
2018-07-23T07:15:02.422Z,14904.00
2018-07-23T07:16:02.669Z,16028.00
2018-07-23T07:17:02.919Z,17408.00
2018-07-23T07:18:03.165Z,17440.00
2018-07-23T07:19:03.413Z,16896.00
2018-07-23T07:20:03.662Z,17024.00
2018-07-23T07:21:03.909Z,17120.00
2018-07-23T07:22:04.162Z,16656.00
2018-07-23T07:23:04.406Z,16804.00
2018-07-23T07:24:04.655Z,16936.00
2018-07-23T07:25:04.903Z,16816.00
2018-07-23T07:26:05.153Z,17076.00
2018-07-23T07:27:05.401Z,17016.00
2018-07-23T07:28:05.651Z,16736.00
2018-07-23T07:29:05.904Z,16712.00
2018-07-23T07:30:06.150Z,16772.00
2018-07-23T07:31:06.397Z,17064.00
2018-07-23T07:32:06.648Z,17140.00
2018-07-23T07:33:06.897Z,17024.00
2018-07-23T07:34:07.144Z,16928.00
2018-07-23T07:35:07.392Z,17180.00
2018-07-23T07:36:07.642Z,17508.00
2018-07-23T07:37:07.889Z,17420.00
2018-07-23T07:38:08.169Z,17296.00
2018-07-23T07:39:08.390Z,17360.00
2018-07-23T07:40:08.639Z,17452.00
2018-07-23T07:41:08.888Z,17552.00
2018-07-23T07:42:09.139Z,17672.00
2018-07-23T07:43:09.390Z,17644.00
2018-07-23T07:44:09.641Z,17732.00
2018-07-23T07:45:09.895Z,17852.00
2018-07-23T07:46:10.141Z,17960.00
2018-07-23T07:47:10.391Z,18036.00
2018-07-23T07:48:10.643Z,18080.00
2018-07-23T07:49:10.896Z,18124.00
2018-07-23T07:50:11.149Z,18276.00
2018-07-23T07:51:11.401Z,18720.00
2018-07-23T07:52:11.652Z,18848.00
2018-07-23T07:53:11.902Z,18848.00
2018-07-23T07:54:12.155Z,19072.00
2018-07-23T07:55:12.406Z,19136.00
2018-07-23T07:56:12.662Z,19232.00
2018-07-23T07:57:12.910Z,19328.00
2018-07-23T07:58:13.162Z,19392.00
2018-07-23T07:59:13.454Z,19456.00
2018-07-23T08:00:13.671Z,19584.00
2018-07-23T08:01:13.920Z,19968.00
2018-07-23T08:02:14.172Z,20160.00
2018-07-23T08:03:14.427Z,20064.00
2018-07-23T08:04:14.681Z,20032.00
2018-07-23T08:05:14.933Z,20160.00
2018-07-23T08:06:15.187Z,20320.00
2018-07-23T08:07:15.511Z,20384.00
2018-07-23T08:08:15.694Z,20576.00
2018-07-23T08:09:15.951Z,20768.00
2018-07-23T08:10:16.204Z,20800.00
2018-07-23T08:11:16.458Z,20800.00
2018-07-23T08:12:16.712Z,21024.00
2018-07-23T08:13:16.968Z,21664.00
2018-07-23T08:14:17.220Z,22176.00
2018-07-23T08:15:17.474Z,22752.00
2018-07-23T08:16:17.729Z,22784.00
2018-07-23T08:17:17.991Z,22720.00
2018-07-23T08:18:18.239Z,22784.00
2018-07-23T08:19:18.492Z,22816.00
2018-07-23T08:20:18.746Z,22752.00
2018-07-23T08:21:18.999Z,22976.00
2018-07-23T08:22:19.253Z,23424.00
2018-07-23T08:23:19.505Z,23808.00
2018-07-23T08:24:19.761Z,23776.00
2018-07-23T08:25:20.015Z,23136.00
2018-07-23T08:26:20.268Z,23008.00
2018-07-23T08:27:20.523Z,23200.00
2018-07-23T08:28:20.778Z,23296.00
2018-07-23T08:29:21.035Z,23456.00
2018-07-23T08:30:21.294Z,23648.00
2018-07-23T08:31:21.548Z,23712.00
2018-07-23T08:32:21.874Z,24640.00
2018-07-23T08:33:22.060Z,27232.00
2018-07-23T08:34:22.313Z,29184.00
2018-07-23T08:35:22.568Z,28544.00
2018-07-23T08:36:22.821Z,29792.00
2018-07-23T08:37:23.074Z,30752.00
2018-07-23T08:38:23.330Z,31072.00
2018-07-23T08:39:23.585Z,32128.00
2018-07-23T08:40:23.841Z,32640.00
2018-07-23T08:41:24.096Z,33344.00
2018-07-23T08:42:24.354Z,35008.00
2018-07-23T08:43:24.605Z,35648.00
2018-07-23T08:44:24.860Z,36320.00
2018-07-23T08:45:25.116Z,37568.00
2018-07-23T08:46:25.371Z,37600.00
2018-07-23T08:47:25.623Z,36096.00
2018-07-23T08:48:25.881Z,30272.00
2018-07-23T08:49:26.138Z,34144.00
2018-07-23T08:50:26.389Z,28480.00
2018-07-23T08:51:26.702Z,29632.00
2018-07-23T08:52:26.902Z,18508.00
2018-07-23T08:53:27.158Z,18180.00
2018-07-23T08:54:27.418Z,18492.00
2018-07-23T08:55:27.668Z,19520.00
2018-07-23T08:56:27.922Z,21440.00
2018-07-23T08:57:28.186Z,37696.00
2018-07-23T08:58:28.430Z,38400.00
2018-07-23T08:59:28.673Z,39200.00
2018-07-23T09:00:28.937Z,40160.00
2018-07-23T09:01:29.195Z,41856.00
2018-07-23T09:02:29.447Z,42240.00
2018-07-23T09:03:29.704Z,41152.00
2018-07-23T09:04:29.956Z,39776.00
2018-07-23T09:05:30.211Z,40960.00
2018-07-23T09:06:30.463Z,42016.00
2018-07-23T09:07:30.719Z,43232.00
2018-07-23T09:08:31.026Z,42272.00
2018-07-23T09:09:31.227Z,42144.00
2018-07-23T09:10:31.481Z,42976.00
2018-07-23T09:11:31.737Z,44288.00
2018-07-23T09:12:31.991Z,44832.00
2018-07-23T09:13:32.246Z,48288.00
2018-07-23T09:14:32.502Z,49344.00
2018-07-23T09:15:32.757Z,48640.00
2018-07-23T09:16:33.011Z,49728.00
2018-07-23T09:17:33.265Z,50848.00
2018-07-23T09:18:33.520Z,51360.00
2018-07-23T09:19:33.776Z,50496.00
2018-07-23T09:20:34.031Z,49984.00
2018-07-23T09:21:34.287Z,49984.00
2018-07-23T09:22:34.543Z,49920.00
2018-07-23T09:23:34.802Z,50688.00
2018-07-23T09:24:35.052Z,51904.00
2018-07-23T09:25:35.309Z,51200.00
2018-07-23T09:26:35.568Z,50560.00
2018-07-23T09:27:35.821Z,49824.00
2018-07-23T09:28:36.074Z,49792.00
2018-07-23T09:29:36.331Z,52384.00
2018-07-23T09:30:36.592Z,50848.00
2018-07-23T09:31:36.843Z,56736.00
2018-07-23T09:32:37.101Z,53952.00
2018-07-23T09:33:37.362Z,55264.00
2018-07-23T09:34:37.615Z,49728.00
2018-07-23T09:35:37.873Z,26144.00
2018-07-23T09:36:38.130Z,26432.00
2018-07-23T09:37:38.387Z,28192.00
2018-07-23T09:38:38.644Z,25696.00
2018-07-23T09:39:38.891Z,26560.00
2018-07-23T09:40:39.146Z,37632.00
2018-07-23T09:41:39.401Z,60608.00
2018-07-23T09:42:39.656Z,59168.00
2018-07-23T09:43:39.912Z,60256.00
2018-07-23T09:44:40.168Z,59296.00
2018-07-23T09:45:40.470Z,60448.00
2018-07-23T09:46:40.684Z,58176.00
2018-07-23T09:47:40.937Z,63008.00
2018-07-23T09:48:41.191Z,64928.00
2018-07-23T09:49:41.447Z,64544.00
2018-07-23T09:50:41.704Z,63424.00
2018-07-23T09:51:42.022Z,60128.00
2018-07-23T09:52:42.253Z,25952.00
2018-07-23T09:53:42.505Z,24736.00
2018-07-23T09:54:42.762Z,25408.00
2018-07-23T09:55:43.019Z,27488.00
2018-07-23T09:56:43.276Z,62272.00
2018-07-23T09:57:43.530Z,67296.00
2018-07-23T09:58:43.787Z,64320.00
2018-07-23T09:59:44.043Z,65920.00
2018-07-23T10:00:44.297Z,52736.00
2018-07-23T10:01:44.554Z,65824.00
2018-07-23T10:02:44.811Z,49024.00
2018-07-23T10:03:45.068Z,35008.00
2018-07-23T10:04:45.324Z,66144.00
2018-07-23T10:05:45.579Z,67008.00
2018-07-23T10:06:45.834Z,68544.00
2018-07-23T10:07:46.092Z,70624.00
2018-07-23T10:08:46.347Z,30560.00
2018-07-23T10:09:46.600Z,28512.00
2018-07-23T10:10:46.863Z,27616.00
2018-07-23T10:11:47.129Z,27392.00
2018-07-23T10:12:47.384Z,28352.00
2018-07-23T10:13:47.641Z,72064.00
2018-07-23T10:14:47.897Z,74912.00
2018-07-23T10:15:48.156Z,67040.00
2018-07-23T10:16:48.409Z,24640.00
2018-07-23T10:17:48.668Z,23840.00
2018-07-23T10:18:48.921Z,24512.00
2018-07-23T10:19:49.177Z,26048.00
2018-07-23T10:20:49.434Z,53216.00
2018-07-23T10:21:49.687Z,72000.00
2018-07-23T10:22:49.947Z,72224.00
2018-07-23T10:23:50.197Z,35040.00
2018-07-23T10:24:50.452Z,31200.00
2018-07-23T10:25:50.710Z,69984.00
2018-07-23T10:26:50.965Z,73856.00
2018-07-23T10:27:51.221Z,75072.00
2018-07-23T10:28:51.475Z,75424.00
2018-07-23T10:29:51.734Z,33120.00
2018-07-23T10:30:51.989Z,73984.00
2018-07-23T10:31:52.246Z,76544.00
2018-07-23T10:32:52.501Z,76448.00
2018-07-23T10:33:52.762Z,73728.00
2018-07-23T10:34:53.014Z,74784.00
2018-07-23T10:35:53.271Z,76288.00
2018-07-23T10:36:53.530Z,31936.00
2018-07-23T10:37:53.794Z,29152.00
2018-07-23T10:38:54.040Z,29408.00
2018-07-23T10:39:54.297Z,74336.00
2018-07-23T10:40:54.559Z,76896.00
2018-07-23T10:41:54.817Z,82432.00
2018-07-23T10:42:55.070Z,81984.00
2018-07-23T10:43:55.329Z,80864.00
2018-07-23T10:44:55.585Z,62112.00
2018-07-23T10:45:55.844Z,36896.00
2018-07-23T10:46:56.103Z,52160.00
2018-07-23T10:47:56.365Z,80192.00
2018-07-23T10:48:56.618Z,48544.00
2018-07-23T10:49:56.876Z,31648.00
2018-07-23T10:50:57.147Z,29280.00
2018-07-23T10:51:57.390Z,27872.00
2018-07-23T10:52:57.647Z,27744.00
2018-07-23T10:53:57.904Z,26432.00
2018-07-23T10:54:58.158Z,26144.00
2018-07-23T10:55:58.416Z,27040.00
2018-07-23T10:56:58.674Z,30176.00
2018-07-23T10:57:58.930Z,60896.00
2018-07-23T10:58:59.188Z,30208.00
2018-07-23T10:59:59.443Z,29312.00
2018-07-23T11:00:59.698Z,28384.00
2018-07-23T11:01:59.954Z,28352.00
2018-07-23T11:03:00.210Z,29920.00
2018-07-23T11:04:00.466Z,77024.00
2018-07-23T11:05:00.722Z,78368.00
2018-07-23T11:06:00.979Z,76032.00
2018-07-23T11:07:01.233Z,78208.00
2018-07-23T11:08:01.488Z,76256.00
2018-07-23T11:09:01.743Z,79904.00
2018-07-23T11:10:01.998Z,79936.00
2018-07-23T11:11:02.255Z,81696.00
2018-07-23T11:12:02.511Z,81280.00
2018-07-23T11:13:02.767Z,80736.00
2018-07-23T11:14:03.022Z,77184.00
2018-07-23T11:15:03.279Z,78144.00
2018-07-23T11:16:03.534Z,80992.00
2018-07-23T11:17:03.789Z,85792.00
2018-07-23T11:18:04.047Z,84192.00
2018-07-23T11:19:04.304Z,79648.00
2018-07-23T11:20:04.562Z,78048.00
2018-07-23T11:21:04.921Z,81728.00
2018-07-23T11:22:05.082Z,79456.00
2018-07-23T11:23:05.335Z,72416.00
2018-07-23T11:24:05.655Z,76576.00
2018-07-23T11:25:38.415Z,79936.00
2018-07-23T11:26:06.107Z,81088.00
2018-07-23T11:27:06.362Z,78336.00
2018-07-23T11:28:06.621Z,78688.00
2018-07-23T11:29:06.876Z,81152.00
2018-07-23T11:30:07.134Z,83680.00
2018-07-23T11:31:07.391Z,80864.00
2018-07-23T11:32:07.696Z,76064.00
2018-07-23T11:33:07.911Z,77760.00
2018-07-23T11:34:08.168Z,81824.00
2018-07-23T11:35:08.427Z,83584.00
2018-07-23T11:36:08.684Z,79648.00
2018-07-23T11:37:08.943Z,83168.00
2018-07-23T11:38:09.203Z,86464.00
2018-07-23T11:39:09.460Z,81952.00
2018-07-23T11:40:09.721Z,76608.00
2018-07-23T11:41:09.979Z,75904.00
2018-07-23T11:42:10.237Z,80352.00
2018-07-23T11:43:10.498Z,76032.00
2018-07-23T11:44:10.755Z,74240.00
2018-07-23T11:45:11.064Z,76960.00
2018-07-23T11:46:24.423Z,86752.00
2018-07-23T11:47:11.547Z,85216.00
2018-07-23T11:48:11.790Z,78720.00
2018-07-23T11:49:12.047Z,81216.00
2018-07-23T11:50:12.304Z,86752.00
2018-07-23T11:51:12.563Z,90336.00
2018-07-23T11:52:14.356Z,85888.00
2018-07-23T11:53:13.074Z,84288.00
2018-07-23T11:54:13.328Z,86240.00
2018-07-23T11:55:13.586Z,89664.00
2018-07-23T11:56:13.842Z,87648.00
2018-07-23T11:57:14.094Z,87904.00
2018-07-23T11:58:14.358Z,90944.00
2018-07-23T11:59:14.615Z,93088.00
2018-07-23T12:00:14.874Z,83552.00
2018-07-23T12:01:15.132Z,54624.00
2018-07-23T12:02:15.388Z,28928.00
2018-07-23T12:03:15.650Z,83520.00
2018-07-23T12:04:15.927Z,90656.00
2018-07-23T12:05:16.163Z,87200.00
2018-07-23T12:06:16.420Z,83936.00
2018-07-23T12:07:16.678Z,85120.00
2018-07-23T12:08:16.937Z,86368.00
2018-07-23T12:09:17.194Z,78304.00
2018-07-23T12:10:17.509Z,87904.00
2018-07-23T12:11:17.790Z,83616.00
2018-07-23T12:12:18.051Z,80672.00
2018-07-23T12:13:18.305Z,85632.00
2018-07-23T12:14:18.565Z,89120.00
2018-07-23T12:15:18.826Z,86336.00
2018-07-23T12:16:19.085Z,86912.00
2018-07-23T12:17:19.433Z,89632.00